Time;durP1;ratioP1;P1;durP2;ratioP2;P2;SDS_P1;SDS_P2;PMS_P1;PMS_P2;Temp;Humidity;BMP_temperature;BMP_pressure;BME280_temperature;BME280_humidity;BME280_pressure;Samples;Min_cycle;Max_cycle;Signal;HPM_P1;HPM_P2
2022/01/11 00:01:45;;;;;;;3.13;2.93;;;;;;;;;;5063107;28;20204;-67
2022/01/11 00:04:32;;;;;;;3.20;3.00;;;;;;;;;;5068823;28;20307;-66
2022/01/11 00:07:20;;;;;;;3.47;3.00;;;;;;;;;;5067752;28;20635;-67
2022/01/11 00:10:09;;;;;;;3.47;3.17;;;;;;;;;;5065654;28;20240;-67
2022/01/11 00:12:57;;;;;;;2.97;2.70;;;;;;;;;;5064999;28;20231;-67
2022/01/11 00:15:45;;;;;;;2.93;2.73;;;;;;;;;;5064522;28;20207;-68
2022/01/11 00:18:32;;;;;;;3.03;2.73;;;;;;;;;;5063043;28;20240;-66
2022/01/11 00:21:19;;;;;;;2.67;2.50;;;;;;;;;;5068371;28;20223;-67
2022/01/11 00:27:13;;;;;;;2.87;2.67;;;;;;;;;;5067234;28;20243;-67
2022/01/11 00:30:07;;;;;;;2.80;2.60;;;;;;;;;;5062374;28;20222;-68
2022/01/11 00:32:56;;;;;;;2.60;2.40;;;;;;;;;;5065101;28;20216;-67
2022/01/11 00:35:45;;;;;;;2.73;2.57;;;;;;;;;;5066736;28;20686;-67
2022/01/11 00:38:34;;;;;;;2.30;2.20;;;;;;;;;;5062818;28;20705;-66
2022/01/11 00:41:21;;;;;;;2.80;2.60;;;;;;;;;;5067076;28;20333;-68
2022/01/11 00:44:09;;;;;;;2.40;2.30;;;;;;;;;;5062562;28;20307;-67
2022/01/11 00:46:56;;;;;;;2.63;2.43;;;;;;;;;;5061468;28;20235;-67
2022/01/11 00:49:43;;;;;;;2.40;2.30;;;;;;;;;;5064403;28;20564;-67
2022/01/11 00:52:30;;;;;;;2.70;2.50;;;;;;;;;;5061416;28;20248;-67
2022/01/11 00:55:18;;;;;;;3.30;2.80;;;;;;;;;;5067345;28;20204;-67
2022/01/11 00:58:06;;;;;;;2.60;2.40;;;;;;;;;;5065565;28;20695;-67
2022/01/11 01:00:55;;;;;;;2.60;2.50;;;;;;;;;;5064131;28;20204;-67
2022/01/11 01:03:42;;;;;;;2.47;2.33;;;;;;;;;;5065194;28;21058;-67
2022/01/11 01:06:29;;;;;;;2.83;2.63;;;;;;;;;;5062918;28;20224;-67
2022/01/11 01:09:16;;;;;;;2.20;2.10;;;;;;;;;;5065374;28;20260;-68
2022/01/11 01:12:04;;;;;;;2.53;2.43;;;;;;;;;;5065827;28;20584;-66
2022/01/11 01:14:51;;;;;;;2.57;2.47;;;;;;;;;;5062413;28;20265;-67
2022/01/11 01:17:39;;;;;;;2.37;2.27;;;;;;;;;;5063781;28;20290;-67
2022/01/11 01:20:26;;;;;;;2.73;2.60;;;;;;;;;;5061470;28;20236;-67
2022/01/11 01:23:14;;;;;;;2.60;2.50;;;;;;;;;;5064421;28;20204;-67
2022/01/11 01:26:01;;;;;;;2.80;2.60;;;;;;;;;;5065142;28;20269;-67
2022/01/11 01:28:48;;;;;;;2.70;2.60;;;;;;;;;;5065310;28;20213;-67
2022/01/11 01:31:36;;;;;;;2.63;2.53;;;;;;;;;;5064295;28;20223;-67
2022/01/11 01:34:24;;;;;;;2.43;2.33;;;;;;;;;;5062270;28;20228;-68
2022/01/11 01:37:11;;;;;;;2.70;2.57;;;;;;;;;;5064067;28;20546;-67
2022/01/11 01:39:58;;;;;;;2.50;2.40;;;;;;;;;;5060551;28;20777;-67
2022/01/11 01:42:47;;;;;;;3.63;2.30;;;;;;;;;;5064706;28;20740;-67
2022/01/11 01:45:33;;;;;;;2.73;2.57;;;;;;;;;;5063291;28;20209;-67
2022/01/11 01:48:21;;;;;;;2.67;2.57;;;;;;;;;;5064486;28;20262;-67
2022/01/11 01:51:11;;;;;;;2.73;2.53;;;;;;;;;;5064757;28;20252;-67
2022/01/11 01:53:58;;;;;;;2.60;2.50;;;;;;;;;;5059799;28;20282;-68
2022/01/11 01:56:45;;;;;;;2.60;2.50;;;;;;;;;;5064021;28;20284;-67
2022/01/11 01:59:32;;;;;;;2.90;2.70;;;;;;;;;;5061376;28;20229;-66
2022/01/11 02:02:19;;;;;;;2.80;2.60;;;;;;;;;;5064222;28;20210;-73
2022/01/11 02:05:07;;;;;;;2.50;2.40;;;;;;;;;;5066035;28;20227;-73
2022/01/11 02:07:55;;;;;;;2.63;2.53;;;;;;;;;;5063960;28;20208;-73
2022/01/11 02:10:42;;;;;;;2.90;2.70;;;;;;;;;;5062318;28;20596;-73
2022/01/11 02:13:29;;;;;;;3.23;3.03;;;;;;;;;;5064578;28;20338;-73
2022/01/11 02:16:19;;;;;;;2.80;2.70;;;;;;;;;;5064776;28;20244;-72
2022/01/11 02:19:07;;;;;;;2.60;2.50;;;;;;;;;;5064679;28;20207;-73
2022/01/11 02:21:55;;;;;;;2.87;2.67;;;;;;;;;;5061940;28;20213;-73
2022/01/11 02:24:42;;;;;;;2.93;2.73;;;;;;;;;;5065470;28;20204;-73
2022/01/11 02:27:29;;;;;;;2.67;2.53;;;;;;;;;;5060999;28;20216;-72
2022/01/11 02:30:16;;;;;;;2.97;2.80;;;;;;;;;;5064213;28;20294;-73
2022/01/11 02:33:10;;;;;;;2.70;2.50;;;;;;;;;;5063492;28;20675;-72
2022/01/11 02:35:57;;;;;;;2.70;2.60;;;;;;;;;;5062488;28;20672;-72
2022/01/11 02:38:46;;;;;;;3.10;2.90;;;;;;;;;;5064933;28;20210;-73
2022/01/11 02:41:32;;;;;;;2.90;2.70;;;;;;;;;;5061464;28;20214;-72
2022/01/11 02:44:19;;;;;;;2.63;2.53;;;;;;;;;;5062355;28;20675;-73
2022/01/11 02:47:07;;;;;;;3.00;2.80;;;;;;;;;;5063758;28;20710;-73
2022/01/11 02:49:53;;;;;;;3.20;3.00;;;;;;;;;;5062788;28;20211;-73
2022/01/11 02:52:40;;;;;;;2.80;2.60;;;;;;;;;;5064686;28;20735;-73
2022/01/11 02:55:29;;;;;;;3.00;2.80;;;;;;;;;;5061678;28;20438;-73
2022/01/11 02:58:16;;;;;;;2.60;2.50;;;;;;;;;;5063564;28;20266;-73
2022/01/11 03:01:04;;;;;;;2.87;2.67;;;;;;;;;;5063365;28;20212;-73
2022/01/11 03:03:52;;;;;;;2.87;2.67;;;;;;;;;;5061624;28;20298;-73
2022/01/11 03:06:39;;;;;;;2.97;2.77;;;;;;;;;;5062427;28;20474;-73
2022/01/11 03:09:30;;;;;;;3.00;2.80;;;;;;;;;;5057362;28;20259;-73
2022/01/11 03:12:18;;;;;;;3.07;2.87;;;;;;;;;;5060127;28;20287;-73
2022/01/11 03:15:06;;;;;;;3.10;2.90;;;;;;;;;;5063272;28;20254;-73
2022/01/11 03:17:53;;;;;;;3.10;2.90;;;;;;;;;;5060508;28;21703;-73
2022/01/11 03:20:42;;;;;;;3.10;2.90;;;;;;;;;;5063168;28;20242;-73
2022/01/11 03:23:30;;;;;;;2.70;2.60;;;;;;;;;;5061802;28;20235;-73
2022/01/11 03:26:17;;;;;;;2.83;2.63;;;;;;;;;;5060817;28;20313;-73
2022/01/11 03:29:05;;;;;;;3.00;2.80;;;;;;;;;;5063533;28;20269;-73
2022/01/11 03:31:52;;;;;;;2.70;2.50;;;;;;;;;;5060344;28;20215;-73
2022/01/11 03:34:41;;;;;;;2.60;2.50;;;;;;;;;;5061305;28;20225;-73
2022/01/11 03:37:28;;;;;;;2.80;2.70;;;;;;;;;;5062090;28;20211;-73
2022/01/11 03:40:17;;;;;;;2.83;2.63;;;;;;;;;;5061671;28;20295;-73
2022/01/11 03:43:04;;;;;;;2.93;2.73;;;;;;;;;;5062076;28;20227;-73
2022/01/11 03:45:53;;;;;;;2.73;2.63;;;;;;;;;;5064742;28;20298;-73
2022/01/11 03:48:40;;;;;;;2.70;2.60;;;;;;;;;;5064678;28;20292;-73
2022/01/11 03:51:27;;;;;;;2.97;2.77;;;;;;;;;;5060861;28;20290;-73
2022/01/11 03:54:16;;;;;;;2.70;2.53;;;;;;;;;;5063654;28;20242;-73
2022/01/11 03:57:04;;;;;;;2.70;2.60;;;;;;;;;;5062071;28;20203;-73
2022/01/11 03:59:50;;;;;;;2.63;2.53;;;;;;;;;;5066102;28;20244;-72
2022/01/11 04:02:39;;;;;;;2.90;2.70;;;;;;;;;;5063297;28;20207;-73
2022/01/11 04:05:26;;;;;;;2.60;2.50;;;;;;;;;;5058695;28;20234;-73
2022/01/11 04:08:13;;;;;;;2.50;2.40;;;;;;;;;;5062961;28;20212;-73
2022/01/11 04:11:00;;;;;;;2.93;2.73;;;;;;;;;;5062441;28;20239;-73
2022/01/11 04:13:47;;;;;;;2.80;2.60;;;;;;;;;;5060943;28;20269;-73
2022/01/11 04:16:34;;;;;;;2.80;2.60;;;;;;;;;;5062905;28;20940;-76
2022/01/11 04:19:23;;;;;;;2.70;2.53;;;;;;;;;;5060957;28;20751;-73
2022/01/11 04:22:10;;;;;;;2.77;2.67;;;;;;;;;;5065042;28;20242;-73
2022/01/11 04:24:57;;;;;;;2.67;2.57;;;;;;;;;;5060789;28;20624;-73
2022/01/11 04:27:44;;;;;;;2.70;2.50;;;;;;;;;;5068083;28;20714;-73
2022/01/11 04:30:31;;;;;;;2.50;2.40;;;;;;;;;;5065498;28;20686;-73
2022/01/11 04:33:18;;;;;;;2.90;2.70;;;;;;;;;;5062407;28;20291;-73
2022/01/11 04:36:06;;;;;;;2.60;2.50;;;;;;;;;;5063752;28;20251;-74
2022/01/11 04:38:53;;;;;;;2.67;2.57;;;;;;;;;;5066822;28;20268;-73
2022/01/11 04:41:41;;;;;;;2.60;2.50;;;;;;;;;;5064577;28;20220;-73
2022/01/11 04:44:28;;;;;;;2.60;2.50;;;;;;;;;;5064251;28;20691;-73
2022/01/11 04:47:15;;;;;;;2.50;2.40;;;;;;;;;;5063926;28;20682;-72
2022/01/11 04:50:02;;;;;;;2.60;2.50;;;;;;;;;;5065231;28;20220;-73
2022/01/11 04:52:50;;;;;;;2.50;2.40;;;;;;;;;;5061630;28;20334;-73
2022/01/11 04:55:37;;;;;;;2.80;2.60;;;;;;;;;;5064903;28;20227;-73
2022/01/11 04:58:24;;;;;;;2.70;2.60;;;;;;;;;;5065077;28;20290;-73
2022/01/11 05:01:11;;;;;;;3.00;2.80;;;;;;;;;;5066059;28;20205;-73
2022/01/11 05:03:58;;;;;;;2.70;2.60;;;;;;;;;;5065339;28;20250;-73
2022/01/11 05:06:45;;;;;;;2.80;2.60;;;;;;;;;;5066730;28;20269;-71
2022/01/11 05:09:34;;;;;;;2.67;2.57;;;;;;;;;;5062763;28;20265;-73
2022/01/11 05:12:20;;;;;;;2.40;2.30;;;;;;;;;;5063505;28;20224;-73
2022/01/11 05:15:09;;;;;;;2.57;2.47;;;;;;;;;;5060318;28;20335;-72
2022/01/11 05:17:56;;;;;;;2.93;2.73;;;;;;;;;;5063851;28;20306;-73
2022/01/11 05:20:45;;;;;;;2.93;2.80;;;;;;;;;;5064389;28;20336;-73
2022/01/11 05:23:32;;;;;;;2.80;2.70;;;;;;;;;;5067610;28;20216;-73
2022/01/11 05:26:21;;;;;;;2.63;2.53;;;;;;;;;;5062468;28;20256;-72
2022/01/11 05:29:08;;;;;;;2.67;2.50;;;;;;;;;;5063509;28;20628;-72
2022/01/11 05:31:56;;;;;;;2.80;2.60;;;;;;;;;;5067188;28;20314;-73
2022/01/11 05:34:43;;;;;;;3.03;2.80;;;;;;;;;;5057265;28;20713;-72
2022/01/11 05:37:30;;;;;;;2.90;2.70;;;;;;;;;;5064773;28;20295;-73
2022/01/11 05:40:18;;;;;;;2.70;2.57;;;;;;;;;;5063905;28;20709;-72
2022/01/11 05:43:07;;;;;;;2.50;2.40;;;;;;;;;;5063467;28;20253;-73
2022/01/11 05:45:53;;;;;;;2.37;2.27;;;;;;;;;;5064513;28;20208;-72
2022/01/11 05:48:44;;;;;;;2.70;2.60;;;;;;;;;;5063369;28;20232;-72
2022/01/11 05:51:31;;;;;;;3.00;2.80;;;;;;;;;;5064561;28;20217;-73
2022/01/11 05:54:18;;;;;;;2.87;2.67;;;;;;;;;;5065979;28;20200;-72
2022/01/11 05:57:05;;;;;;;2.87;2.67;;;;;;;;;;5064158;28;20204;-73
2022/01/11 05:59:53;;;;;;;2.90;2.70;;;;;;;;;;5066191;28;20294;-73
2022/01/11 06:02:41;;;;;;;2.93;2.73;;;;;;;;;;5063464;28;20666;-72
2022/01/11 06:05:28;;;;;;;2.47;2.37;;;;;;;;;;5064567;28;20219;-73
2022/01/11 06:08:16;;;;;;;2.70;2.60;;;;;;;;;;5063625;28;20295;-73
2022/01/11 06:11:04;;;;;;;2.70;2.60;;;;;;;;;;5065999;28;20238;-73
2022/01/11 06:13:51;;;;;;;2.83;2.73;;;;;;;;;;5064732;28;20211;-73
2022/01/11 06:16:39;;;;;;;2.80;2.60;;;;;;;;;;5061439;28;20276;-73
2022/01/11 06:19:26;;;;;;;2.50;2.40;;;;;;;;;;5065885;28;20692;-73
2022/01/11 06:22:13;;;;;;;3.03;2.83;;;;;;;;;;5064922;28;20256;-73
2022/01/11 06:25:03;;;;;;;2.87;2.70;;;;;;;;;;5066165;28;20200;-73
2022/01/11 06:27:50;;;;;;;3.00;2.80;;;;;;;;;;5063664;28;20218;-73
2022/01/11 06:30:37;;;;;;;2.53;2.43;;;;;;;;;;5061276;28;20254;-73
2022/01/11 06:33:25;;;;;;;3.00;2.80;;;;;;;;;;5063361;28;20235;-73
2022/01/11 06:36:12;;;;;;;2.93;2.73;;;;;;;;;;5064492;28;20234;-72
2022/01/11 06:38:59;;;;;;;2.60;2.50;;;;;;;;;;5065254;28;20207;-73
2022/01/11 06:41:46;;;;;;;2.70;2.60;;;;;;;;;;5064868;28;20720;-72
2022/01/11 06:44:33;;;;;;;2.50;2.40;;;;;;;;;;5063380;28;20225;-72
2022/01/11 06:47:20;;;;;;;2.53;2.43;;;;;;;;;;5062124;28;20204;-73
2022/01/11 06:50:10;;;;;;;3.00;2.80;;;;;;;;;;5062428;28;20294;-73
2022/01/11 06:52:57;;;;;;;2.60;2.50;;;;;;;;;;5064860;28;20230;-73
2022/01/11 06:55:44;;;;;;;2.83;2.67;;;;;;;;;;5065087;28;20624;-73
2022/01/11 06:58:31;;;;;;;2.90;2.70;;;;;;;;;;5060018;28;20720;-73
2022/01/11 07:01:18;;;;;;;2.60;2.50;;;;;;;;;;5063716;28;20239;-73
2022/01/11 07:04:05;;;;;;;2.70;2.50;;;;;;;;;;5059714;28;20328;-73
2022/01/11 07:06:53;;;;;;;2.80;2.60;;;;;;;;;;5064015;28;20460;-73
2022/01/11 07:09:40;;;;;;;2.80;2.70;;;;;;;;;;5060327;28;20232;-73
2022/01/11 07:12:27;;;;;;;2.57;2.47;;;;;;;;;;5062649;28;20285;-72
2022/01/11 07:15:14;;;;;;;2.97;2.87;;;;;;;;;;5062961;28;21084;-73
2022/01/11 07:18:06;;;;;;;2.90;2.77;;;;;;;;;;5064927;28;20300;-73
2022/01/11 07:20:53;;;;;;;2.60;2.50;;;;;;;;;;5063502;28;20207;-73
2022/01/11 07:23:41;;;;;;;2.80;2.60;;;;;;;;;;5063852;28;20238;-73
2022/01/11 07:26:28;;;;;;;2.77;2.50;;;;;;;;;;5062219;28;20694;-72
2022/01/11 07:29:15;;;;;;;2.73;2.63;;;;;;;;;;5062656;28;20585;-72
2022/01/11 07:32:02;;;;;;;2.80;2.70;;;;;;;;;;5063530;28;20277;-73
2022/01/11 07:34:49;;;;;;;2.73;2.63;;;;;;;;;;5061959;28;20603;-72
2022/01/11 07:37:36;;;;;;;2.50;2.40;;;;;;;;;;5063218;28;20227;-72
2022/01/11 07:40:24;;;;;;;2.83;2.63;;;;;;;;;;5064063;28;20268;-73
2022/01/11 07:43:11;;;;;;;2.90;2.70;;;;;;;;;;5060667;28;20227;-73
2022/01/11 07:45:58;;;;;;;2.70;2.60;;;;;;;;;;5061945;28;20207;-73
2022/01/11 07:48:45;;;;;;;2.83;2.63;;;;;;;;;;5061694;28;20203;-72
2022/01/11 07:51:32;;;;;;;2.73;2.57;;;;;;;;;;5059880;28;20210;-72
2022/01/11 07:54:19;;;;;;;2.70;2.50;;;;;;;;;;5062018;28;20216;-72
2022/01/11 07:57:07;;;;;;;3.00;2.80;;;;;;;;;;5061580;28;20265;-72
2022/01/11 07:59:54;;;;;;;3.17;2.97;;;;;;;;;;5065767;28;20288;-73
2022/01/11 08:02:41;;;;;;;2.90;2.70;;;;;;;;;;5068583;28;20231;-72
2022/01/11 08:05:28;;;;;;;3.10;2.90;;;;;;;;;;5067983;28;20254;-73
2022/01/11 08:08:15;;;;;;;2.90;2.70;;;;;;;;;;5065822;28;20285;-73
2022/01/11 08:11:02;;;;;;;2.83;2.63;;;;;;;;;;5064108;28;20207;-70
2022/01/11 08:13:50;;;;;;;2.80;2.70;;;;;;;;;;5067837;28;20242;-73
2022/01/11 08:16:39;;;;;;;2.80;2.60;;;;;;;;;;5064765;28;20555;-73
2022/01/11 08:19:26;;;;;;;3.20;3.00;;;;;;;;;;5067123;28;20614;-73
2022/01/11 08:22:13;;;;;;;2.63;2.43;;;;;;;;;;5063514;28;20399;-72
2022/01/11 08:25:00;;;;;;;3.10;2.90;;;;;;;;;;5064253;28;20295;-72
2022/01/11 08:27:47;;;;;;;2.80;2.60;;;;;;;;;;5064472;28;20211;-71
2022/01/11 08:30:35;;;;;;;2.70;2.60;;;;;;;;;;5065794;28;20365;-73
2022/01/11 08:33:22;;;;;;;3.20;3.00;;;;;;;;;;5064535;28;20237;-72
2022/01/11 08:36:09;;;;;;;3.20;3.00;;;;;;;;;;5065259;28;20319;-72
2022/01/11 08:38:56;;;;;;;2.87;2.67;;;;;;;;;;5064213;28;20308;-72
2022/01/11 08:41:43;;;;;;;3.03;2.83;;;;;;;;;;5063121;28;20295;-73
2022/01/11 08:44:30;;;;;;;2.70;2.50;;;;;;;;;;5067188;28;20301;-72
2022/01/11 08:47:19;;;;;;;3.03;2.83;;;;;;;;;;5062689;28;20222;-71
2022/01/11 08:50:11;;;;;;;2.67;2.50;;;;;;;;;;5064334;28;20259;-72
2022/01/11 08:52:58;;;;;;;2.50;2.40;;;;;;;;;;5063424;28;20322;-73
2022/01/11 08:55:45;;;;;;;2.80;2.60;;;;;;;;;;5066479;28;20224;-73
2022/01/11 08:58:32;;;;;;;2.97;2.80;;;;;;;;;;5064891;28;20212;-72
2022/01/11 09:01:19;;;;;;;2.83;2.70;;;;;;;;;;5065373;28;20251;-72
2022/01/11 09:04:08;;;;;;;3.10;2.90;;;;;;;;;;5062752;28;20258;-72
2022/01/11 09:06:57;;;;;;;2.90;2.70;;;;;;;;;;5063234;28;20682;-72
2022/01/11 09:09:44;;;;;;;2.73;2.53;;;;;;;;;;5063307;28;20824;-71
2022/01/11 09:12:31;;;;;;;3.20;3.00;;;;;;;;;;5063911;28;20211;-72
2022/01/11 09:15:19;;;;;;;3.00;2.80;;;;;;;;;;5065847;28;20238;-72
2022/01/11 09:18:06;;;;;;;2.90;2.70;;;;;;;;;;5062856;28;20199;-72
2022/01/11 09:20:55;;;;;;;2.90;2.77;;;;;;;;;;5063327;28;20298;-71
2022/01/11 09:23:42;;;;;;;2.60;2.50;;;;;;;;;;5062189;28;20603;-72
2022/01/11 09:26:30;;;;;;;2.97;2.77;;;;;;;;;;5064367;28;20211;-72
2022/01/11 09:29:17;;;;;;;2.70;2.60;;;;;;;;;;5063663;28;20575;-72
2022/01/11 09:32:05;;;;;;;2.60;2.50;;;;;;;;;;5064163;28;20229;-72
2022/01/11 09:34:52;;;;;;;2.63;2.50;;;;;;;;;;5061911;28;20286;-72
2022/01/11 09:37:41;;;;;;;2.90;2.70;;;;;;;;;;5064093;28;20697;-72
2022/01/11 09:40:28;;;;;;;2.87;2.70;;;;;;;;;;5064036;28;20680;-72
2022/01/11 09:43:15;;;;;;;3.03;2.83;;;;;;;;;;5062278;28;20299;-72
2022/01/11 09:46:02;;;;;;;3.07;2.87;;;;;;;;;;5064689;28;20294;-72
2022/01/11 09:48:49;;;;;;;2.83;2.70;;;;;;;;;;5063913;28;20207;-73
2022/01/11 09:51:37;;;;;;;3.00;2.80;;;;;;;;;;5066190;28;20286;-72
2022/01/11 09:54:25;;;;;;;3.00;2.80;;;;;;;;;;5062954;28;20574;-72
2022/01/11 09:57:12;;;;;;;3.50;3.20;;;;;;;;;;5063146;28;20311;-72
2022/01/11 10:00:00;;;;;;;3.13;2.93;;;;;;;;;;5065367;28;20258;-72
2022/01/11 10:02:47;;;;;;;3.00;2.80;;;;;;;;;;5058730;28;20955;-72
2022/01/11 10:05:36;;;;;;;3.30;3.10;;;;;;;;;;5060247;28;20243;-72
2022/01/11 10:08:25;;;;;;;2.90;2.70;;;;;;;;;;5063030;28;20660;-71
2022/01/11 10:11:14;;;;;;;3.13;2.93;;;;;;;;;;5063505;28;20219;-72
2022/01/11 10:14:17;;;;;;;3.17;2.97;;;;;;;;;;5063447;28;20321;-72
2022/01/11 10:17:11;;;;;;;3.20;3.00;;;;;;;;;;5061987;28;20297;-72
2022/01/11 10:20:05;;;;;;;3.27;2.97;;;;;;;;;;5063339;28;20207;-72
2022/01/11 10:22:55;;;;;;;3.40;3.20;;;;;;;;;;5064996;28;20294;-72
2022/01/11 10:25:44;;;;;;;3.40;3.20;;;;;;;;;;5059694;28;20249;-72
2022/01/11 10:28:37;;;;;;;3.20;3.00;;;;;;;;;;5063153;28;20227;-72
2022/01/11 10:31:33;;;;;;;3.50;3.30;;;;;;;;;;5060095;28;20287;-72
2022/01/11 10:34:30;;;;;;;3.20;3.00;;;;;;;;;;5063197;28;20219;-72
2022/01/11 10:37:29;;;;;;;3.30;3.10;;;;;;;;;;5065049;28;20355;-72
2022/01/11 10:40:18;;;;;;;3.30;3.10;;;;;;;;;;5061507;28;20365;-72
2022/01/11 10:43:08;;;;;;;3.37;3.17;;;;;;;;;;5059357;28;20286;-72
2022/01/11 10:45:59;;;;;;;3.30;3.10;;;;;;;;;;5063284;28;20292;-72
2022/01/11 10:48:46;;;;;;;3.20;3.00;;;;;;;;;;5061433;28;20608;-72
2022/01/11 10:51:32;;;;;;;3.50;3.30;;;;;;;;;;5062742;28;20210;-72
2022/01/11 10:54:25;;;;;;;3.10;2.90;;;;;;;;;;5063346;28;20215;-73
2022/01/11 10:57:17;;;;;;;3.60;3.30;;;;;;;;;;5061711;28;20314;-72
2022/01/11 11:00:24;;;;;;;3.83;3.53;;;;;;;;;;5064526;28;20870;-72
2022/01/11 11:03:15;;;;;;;3.23;3.03;;;;;;;;;;5062562;28;20243;-72
2022/01/11 11:06:07;;;;;;;3.50;3.30;;;;;;;;;;5063882;28;20195;-72
2022/01/11 11:08:54;;;;;;;3.60;3.40;;;;;;;;;;5061670;28;20235;-72
2022/01/11 11:11:41;;;;;;;3.70;3.50;;;;;;;;;;5066078;28;20234;-72
2022/01/11 11:14:49;;;;;;;3.80;3.50;;;;;;;;;;5065291;28;20688;-72
2022/01/11 11:17:38;;;;;;;3.53;3.23;;;;;;;;;;5064572;28;20317;-72
2022/01/11 11:20:26;;;;;;;3.40;3.20;;;;;;;;;;5061813;28;20208;-72
2022/01/11 11:23:15;;;;;;;3.90;3.60;;;;;;;;;;5061795;28;20231;-72
2022/01/11 11:26:03;;;;;;;3.70;3.40;;;;;;;;;;5064945;28;20218;-72
2022/01/11 11:28:51;;;;;;;3.90;3.60;;;;;;;;;;5063038;28;20217;-72
2022/01/11 11:31:38;;;;;;;3.63;3.37;;;;;;;;;;5061108;28;20345;-72
2022/01/11 11:34:25;;;;;;;4.00;3.70;;;;;;;;;;5069850;28;20664;-72
2022/01/11 11:37:17;;;;;;;3.50;3.30;;;;;;;;;;5071556;28;20257;-72
2022/01/11 11:40:08;;;;;;;3.20;3.00;;;;;;;;;;5072018;28;20222;-72
2022/01/11 11:42:59;;;;;;;3.70;3.50;;;;;;;;;;5069006;28;20203;-72
2022/01/11 11:45:46;;;;;;;3.87;3.60;;;;;;;;;;5067807;28;20547;-71
2022/01/11 11:48:33;;;;;;;3.90;3.63;;;;;;;;;;5070384;28;20203;-73
2022/01/11 11:51:20;;;;;;;3.80;3.60;;;;;;;;;;5067653;28;20230;-73
2022/01/11 11:54:13;;;;;;;4.23;3.97;;;;;;;;;;5069955;28;20214;-73
2022/01/11 11:57:01;;;;;;;4.07;3.77;;;;;;;;;;5069363;28;20317;-70
2022/01/11 11:59:53;;;;;;;3.73;3.53;;;;;;;;;;5067687;28;20667;-72
2022/01/11 12:02:42;;;;;;;3.90;3.60;;;;;;;;;;5069906;28;20208;-72
2022/01/11 12:05:37;;;;;;;4.20;3.90;;;;;;;;;;5067028;28;20653;-72
2022/01/11 12:08:28;;;;;;;4.10;3.80;;;;;;;;;;5067232;28;20199;-72
2022/01/11 12:11:20;;;;;;;4.20;3.90;;;;;;;;;;5070025;28;20694;-72
2022/01/11 12:14:07;;;;;;;4.50;4.20;;;;;;;;;;5067595;28;20273;-73
2022/01/11 12:16:54;;;;;;;4.43;4.07;;;;;;;;;;5068820;28;20349;-72
2022/01/11 12:19:46;;;;;;;4.33;4.00;;;;;;;;;;5068237;28;20235;-72
2022/01/11 12:22:35;;;;;;;4.13;3.83;;;;;;;;;;5070091;28;20207;-72
2022/01/11 12:25:30;;;;;;;4.27;3.97;;;;;;;;;;5070396;28;20211;-73
2022/01/11 12:28:20;;;;;;;4.30;4.00;;;;;;;;;;5062436;28;20298;-72
2022/01/11 12:31:27;;;;;;;4.00;3.70;;;;;;;;;;5072282;28;20265;-73
2022/01/11 12:34:14;;;;;;;4.37;3.97;;;;;;;;;;5069910;28;20341;-72
2022/01/11 12:37:04;;;;;;;4.67;4.37;;;;;;;;;;5068554;28;20231;-73
2022/01/11 12:40:12;;;;;;;4.57;4.17;;;;;;;;;;5072237;28;20204;-73
2022/01/11 12:43:02;;;;;;;4.60;4.30;;;;;;;;;;5065773;28;20287;-72
2022/01/11 12:46:00;;;;;;;5.17;4.77;;;;;;;;;;5067317;28;20210;-73
2022/01/11 12:49:08;;;;;;;5.00;4.60;;;;;;;;;;5068584;28;20203;-73
2022/01/11 12:52:07;;;;;;;4.90;4.50;;;;;;;;;;5064857;28;20640;-73
2022/01/11 12:54:58;;;;;;;4.67;4.27;;;;;;;;;;5064747;28;20211;-73
2022/01/11 12:57:45;;;;;;;5.13;4.73;;;;;;;;;;5064415;28;20373;-73
2022/01/11 13:00:32;;;;;;;4.90;4.60;;;;;;;;;;5063774;28;20242;-72
2022/01/11 13:03:20;;;;;;;5.63;5.23;;;;;;;;;;5066081;28;20211;-72
2022/01/11 13:06:09;;;;;;;5.53;5.10;;;;;;;;;;5062681;28;20228;-72
2022/01/11 13:08:56;;;;;;;5.40;4.97;;;;;;;;;;5064784;28;20322;-73
2022/01/11 13:11:48;;;;;;;5.73;5.23;;;;;;;;;;5062230;28;20204;-73
2022/01/11 13:14:40;;;;;;;6.00;5.50;;;;;;;;;;5065288;28;20200;-72
2022/01/11 13:17:27;;;;;;;5.63;5.00;;;;;;;;;;5067405;28;20672;-73
2022/01/11 13:20:17;;;;;;;5.70;5.30;;;;;;;;;;5064567;28;20211;-72
2022/01/11 13:23:15;;;;;;;6.50;6.00;;;;;;;;;;5068523;28;20342;-71
2022/01/11 13:26:04;;;;;;;6.33;5.80;;;;;;;;;;5065368;28;20214;-73
2022/01/11 13:28:55;;;;;;;6.83;6.33;;;;;;;;;;5063571;28;20210;-73
2022/01/11 13:31:44;;;;;;;6.93;6.23;;;;;;;;;;5063323;28;20207;-73
2022/01/11 13:34:33;;;;;;;6.37;5.87;;;;;;;;;;5063487;28;20215;-73
2022/01/11 13:37:29;;;;;;;7.17;6.60;;;;;;;;;;5064493;28;20315;-72
2022/01/11 13:40:16;;;;;;;7.33;6.63;;;;;;;;;;5065880;28;20249;-73
2022/01/11 13:43:07;;;;;;;7.30;6.70;;;;;;;;;;5062423;28;20336;-73
2022/01/11 13:45:54;;;;;;;7.20;6.60;;;;;;;;;;5064227;28;20287;-73
2022/01/11 13:48:41;;;;;;;7.60;7.00;;;;;;;;;;5064768;28;20288;-73
2022/01/11 13:51:30;;;;;;;7.27;6.67;;;;;;;;;;5064793;28;20359;-73
2022/01/11 13:54:20;;;;;;;7.73;7.03;;;;;;;;;;5065749;28;20316;-73
2022/01/11 13:57:09;;;;;;;7.30;6.70;;;;;;;;;;5063554;28;20322;-73
2022/01/11 13:59:59;;;;;;;7.90;7.10;;;;;;;;;;5066474;28;20643;-73
2022/01/11 14:02:47;;;;;;;7.90;7.20;;;;;;;;;;5062528;28;20226;-73
2022/01/11 14:05:34;;;;;;;7.87;7.20;;;;;;;;;;5063452;28;20262;-73
2022/01/11 14:08:31;;;;;;;7.43;6.80;;;;;;;;;;5066244;28;20211;-73
2022/01/11 14:11:30;;;;;;;8.10;7.40;;;;;;;;;;5020582;28;20286;-73
2022/01/11 14:14:22;;;;;;;8.33;7.57;;;;;;;;;;5026531;28;20205;-73
2022/01/11 14:17:14;;;;;;;8.23;7.43;;;;;;;;;;5025669;28;20295;-73
2022/01/11 14:20:05;;;;;;;8.13;7.37;;;;;;;;;;5024300;28;20205;-73
2022/01/11 14:22:54;;;;;;;9.07;8.27;;;;;;;;;;5026703;28;20299;-73
2022/01/11 14:25:43;;;;;;;8.87;8.07;;;;;;;;;;5021852;28;20263;-73
2022/01/11 14:28:33;;;;;;;8.63;7.90;;;;;;;;;;5026593;28;20292;-73
2022/01/11 14:31:20;;;;;;;8.27;7.57;;;;;;;;;;5023926;28;20216;-73
2022/01/11 14:34:11;;;;;;;8.27;7.57;;;;;;;;;;5023297;28;20661;-72
2022/01/11 14:37:17;;;;;;;9.83;8.07;;;;;;;;;;5023047;28;20252;-73
2022/01/11 14:40:18;;;;;;;8.93;8.03;;;;;;;;;;5021434;28;20700;-73
2022/01/11 14:43:10;;;;;;;8.90;7.60;;;;;;;;;;5025217;28;20678;-73
2022/01/11 14:46:02;;;;;;;8.73;7.93;;;;;;;;;;5023646;28;20351;-73
2022/01/11 14:48:49;;;;;;;9.13;8.33;;;;;;;;;;5025117;28;20852;-73
2022/01/11 14:51:41;;;;;;;8.67;7.83;;;;;;;;;;5024250;28;20307;-73
2022/01/11 14:54:32;;;;;;;8.33;7.63;;;;;;;;;;5024201;28;20315;-73
2022/01/11 14:57:20;;;;;;;9.10;8.33;;;;;;;;;;5020565;28;20241;-73
2022/01/11 15:00:21;;;;;;;8.77;7.97;;;;;;;;;;5025053;28;20316;-73
2022/01/11 15:03:10;;;;;;;8.93;8.07;;;;;;;;;;5022749;28;20237;-73
2022/01/11 15:06:12;;;;;;;8.83;8.03;;;;;;;;;;5026381;28;20233;-73
2022/01/11 15:09:01;;;;;;;9.20;8.30;;;;;;;;;;5030588;28;20329;-73
2022/01/11 15:11:55;;;;;;;8.97;8.17;;;;;;;;;;5062031;28;20684;-73
2022/01/11 15:14:42;;;;;;;8.63;7.83;;;;;;;;;;5063579;28;20337;-73
2022/01/11 15:17:29;;;;;;;8.80;8.03;;;;;;;;;;5059927;28;20277;-73
2022/01/11 15:20:18;;;;;;;9.03;8.13;;;;;;;;;;5064794;28;20246;-73
2022/01/11 15:23:05;;;;;;;8.67;7.87;;;;;;;;;;5060034;28;20291;-73
2022/01/11 15:25:52;;;;;;;8.80;7.90;;;;;;;;;;5066980;28;20264;-73
2022/01/11 15:28:39;;;;;;;8.50;7.70;;;;;;;;;;5063035;28;20216;-72
2022/01/11 15:31:27;;;;;;;8.73;8.00;;;;;;;;;;5060569;28;20747;-73
2022/01/11 15:34:15;;;;;;;9.50;8.50;;;;;;;;;;5065091;28;20210;-72
2022/01/11 15:37:03;;;;;;;8.73;7.93;;;;;;;;;;5061372;28;20242;-73
2022/01/11 15:39:50;;;;;;;8.90;8.00;;;;;;;;;;5061131;28;20219;-73
2022/01/11 15:42:37;;;;;;;9.20;8.30;;;;;;;;;;5061011;28;20263;-73
2022/01/11 15:45:24;;;;;;;8.63;7.83;;;;;;;;;;5062661;28;20207;-73
2022/01/11 15:48:11;;;;;;;9.37;8.47;;;;;;;;;;5060232;28;20241;-73
2022/01/11 15:50:59;;;;;;;8.30;7.60;;;;;;;;;;5065002;28;20260;-73
2022/01/11 15:53:47;;;;;;;8.77;7.93;;;;;;;;;;5059766;28;20231;-73
2022/01/11 15:56:35;;;;;;;7.67;6.97;;;;;;;;;;5064460;28;20749;-72
2022/01/11 15:59:22;;;;;;;8.60;7.90;;;;;;;;;;5061808;28;20714;-73
2022/01/11 16:02:09;;;;;;;7.80;7.10;;;;;;;;;;5063028;28;20199;-73
2022/01/11 16:04:56;;;;;;;8.20;7.50;;;;;;;;;;5062579;28;20233;-73
2022/01/11 16:07:42;;;;;;;8.60;7.80;;;;;;;;;;5062473;28;20249;-73
2022/01/11 16:10:31;;;;;;;8.30;7.50;;;;;;;;;;5061636;28;20227;-73
2022/01/11 16:13:18;;;;;;;8.00;7.30;;;;;;;;;;5063978;28;20288;-73
2022/01/11 16:16:05;;;;;;;7.90;7.20;;;;;;;;;;5060408;28;20685;-73
2022/01/11 16:18:52;;;;;;;8.00;7.30;;;;;;;;;;5058063;28;20749;-73
2022/01/11 16:21:39;;;;;;;8.00;7.30;;;;;;;;;;5065235;28;20294;-72
2022/01/11 16:24:26;;;;;;;7.37;6.77;;;;;;;;;;5065562;28;20334;-73
2022/01/11 16:27:15;;;;;;;6.97;6.40;;;;;;;;;;5063348;28;20277;-71
2022/01/11 16:30:16;;;;;;;7.93;7.23;;;;;;;;;;5067330;28;20569;-72
2022/01/11 16:33:05;;;;;;;7.47;6.77;;;;;;;;;;5061842;28;21042;-73
2022/01/11 16:35:54;;;;;;;7.77;7.00;;;;;;;;;;5063711;28;20660;-72
2022/01/11 16:38:42;;;;;;;7.53;6.83;;;;;;;;;;5066259;28;20224;-72
2022/01/11 16:44:34;;;;;;;8.00;7.30;;;;;;;;;;5066627;28;20200;-73
2022/01/11 16:47:21;;;;;;;7.63;6.93;;;;;;;;;;5065124;28;20731;-73
2022/01/11 16:50:09;;;;;;;7.23;6.63;;;;;;;;;;5063766;28;20659;-73
2022/01/11 16:52:56;;;;;;;7.17;6.57;;;;;;;;;;5066923;28;20239;-73
2022/01/11 16:55:43;;;;;;;7.33;6.70;;;;;;;;;;5064669;28;20286;-71
2022/01/11 16:58:30;;;;;;;7.87;7.07;;;;;;;;;;5064921;28;20231;-73